sensor_id;sensor_type;location;lat;lon;timestamp;temperature;humidity
14061;DHT22;7105;43.616;1.434;2023-07-13T00:00:37;22.20;99.90
14061;DHT22;7105;43.616;1.434;2023-07-13T00:03:03;22.20;99.90
14061;DHT22;7105;43.616;1.434;2023-07-13T00:05:30;22.20;99.90
14061;DHT22;7105;43.616;1.434;2023-07-13T00:07:56;22.10;99.90
14061;DHT22;7105;43.616;1.434;2023-07-13T00:10:22;22.10;99.90
14061;DHT22;7105;43.616;1.434;2023-07-13T00:12:48;22.10;99.90
14061;DHT22;7105;43.616;1.434;2023-07-13T00:15:18;22.20;99.90
14061;DHT22;7105;43.616;1.434;2023-07-13T00:17:54;22.30;99.90
14061;DHT22;7105;43.616;1.434;2023-07-13T00:20:22;22.30;99.90
14061;DHT22;7105;43.616;1.434;2023-07-13T00:22:48;22.30;99.90
14061;DHT22;7105;43.616;1.434;2023-07-13T00:25:15;22.10;99.90
14061;DHT22;7105;43.616;1.434;2023-07-13T00:27:43;22.20;99.90
14061;DHT22;7105;43.616;1.434;2023-07-13T00:30:09;22.00;99.90
14061;DHT22;7105;43.616;1.434;2023-07-13T00:32:35;22.10;99.90
14061;DHT22;7105;43.616;1.434;2023-07-13T00:35:02;22.10;99.90
14061;DHT22;7105;43.616;1.434;2023-07-13T00:37:28;22.00;99.90
14061;DHT22;7105;43.616;1.434;2023-07-13T00:39:54;22.00;99.90
14061;DHT22;7105;43.616;1.434;2023-07-13T00:42:20;22.00;99.90
14061;DHT22;7105;43.616;1.434;2023-07-13T00:47:40;21.90;99.90
14061;DHT22;7105;43.616;1.434;2023-07-13T00:50:09;21.90;99.90
14061;DHT22;7105;43.616;1.434;2023-07-13T00:52:37;21.80;99.90
14061;DHT22;7105;43.616;1.434;2023-07-13T00:55:04;21.90;99.90
14061;DHT22;7105;43.616;1.434;2023-07-13T00:57:31;21.90;99.90
14061;DHT22;7105;43.616;1.434;2023-07-13T00:59:59;21.80;99.90
14061;DHT22;7105;43.616;1.434;2023-07-13T01:02:26;21.80;99.90
14061;DHT22;7105;43.616;1.434;2023-07-13T01:04:53;21.90;99.90
14061;DHT22;7105;43.616;1.434;2023-07-13T01:07:18;21.90;99.90
14061;DHT22;7105;43.616;1.434;2023-07-13T01:09:45;21.80;99.90
14061;DHT22;7105;43.616;1.434;2023-07-13T01:12:11;21.80;99.90
14061;DHT22;7105;43.616;1.434;2023-07-13T01:14:37;21.70;99.90
14061;DHT22;7105;43.616;1.434;2023-07-13T01:17:03;21.70;99.90
14061;DHT22;7105;43.616;1.434;2023-07-13T01:19:36;21.70;99.90
14061;DHT22;7105;43.616;1.434;2023-07-13T01:22:05;21.60;99.90
14061;DHT22;7105;43.616;1.434;2023-07-13T01:24:35;21.60;99.90
14061;DHT22;7105;43.616;1.434;2023-07-13T01:27:02;21.70;99.90
14061;DHT22;7105;43.616;1.434;2023-07-13T01:29:28;21.60;99.90
14061;DHT22;7105;43.616;1.434;2023-07-13T01:31:54;21.50;99.90
14061;DHT22;7105;43.616;1.434;2023-07-13T01:34:19;21.50;99.90
14061;DHT22;7105;43.616;1.434;2023-07-13T01:36:45;21.50;99.90
14061;DHT22;7105;43.616;1.434;2023-07-13T01:39:10;21.60;99.90
14061;DHT22;7105;43.616;1.434;2023-07-13T01:41:36;21.60;99.90
14061;DHT22;7105;43.616;1.434;2023-07-13T01:44:02;21.50;99.90
14061;DHT22;7105;43.616;1.434;2023-07-13T01:46:28;21.50;99.90
14061;DHT22;7105;43.616;1.434;2023-07-13T01:48:53;21.50;99.90
14061;DHT22;7105;43.616;1.434;2023-07-13T01:51:20;21.50;99.90
14061;DHT22;7105;43.616;1.434;2023-07-13T01:53:46;21.50;99.90
14061;DHT22;7105;43.616;1.434;2023-07-13T01:56:12;21.40;99.90
14061;DHT22;7105;43.616;1.434;2023-07-13T01:58:37;21.30;99.90
14061;DHT22;7105;43.616;1.434;2023-07-13T02:01:03;21.30;99.90
14061;DHT22;7105;43.616;1.434;2023-07-13T02:03:28;21.20;99.90
14061;DHT22;7105;43.616;1.434;2023-07-13T02:05:54;21.00;99.90
14061;DHT22;7105;43.616;1.434;2023-07-13T02:08:20;21.10;99.90
14061;DHT22;7105;43.616;1.434;2023-07-13T02:10:45;21.20;99.90
14061;DHT22;7105;43.616;1.434;2023-07-13T02:13:11;20.90;99.90
14061;DHT22;7105;43.616;1.434;2023-07-13T02:15:40;20.80;99.90
14061;DHT22;7105;43.616;1.434;2023-07-13T02:18:06;20.70;99.90
14061;DHT22;7105;43.616;1.434;2023-07-13T02:20:32;20.80;99.90
14061;DHT22;7105;43.616;1.434;2023-07-13T02:22:57;20.80;99.90
14061;DHT22;7105;43.616;1.434;2023-07-13T02:25:23;20.80;99.90
14061;DHT22;7105;43.616;1.434;2023-07-13T02:27:50;20.60;99.90
14061;DHT22;7105;43.616;1.434;2023-07-13T02:30:16;20.70;99.90
14061;DHT22;7105;43.616;1.434;2023-07-13T02:32:41;20.60;99.90
14061;DHT22;7105;43.616;1.434;2023-07-13T02:35:09;20.60;99.90
14061;DHT22;7105;43.616;1.434;2023-07-13T02:37:34;20.50;99.90
14061;DHT22;7105;43.616;1.434;2023-07-13T02:40:00;20.50;99.90
14061;DHT22;7105;43.616;1.434;2023-07-13T02:42:26;20.50;99.90
14061;DHT22;7105;43.616;1.434;2023-07-13T02:44:51;20.70;99.90
14061;DHT22;7105;43.616;1.434;2023-07-13T02:47:17;20.50;99.90
14061;DHT22;7105;43.616;1.434;2023-07-13T02:49:42;20.40;99.90
14061;DHT22;7105;43.616;1.434;2023-07-13T02:52:09;20.50;99.90
14061;DHT22;7105;43.616;1.434;2023-07-13T02:54:35;20.50;99.90
14061;DHT22;7105;43.616;1.434;2023-07-13T02:57:00;20.30;99.90
14061;DHT22;7105;43.616;1.434;2023-07-13T02:59:26;20.40;99.90
14061;DHT22;7105;43.616;1.434;2023-07-13T03:01:52;20.30;99.90
14061;DHT22;7105;43.616;1.434;2023-07-13T03:04:18;20.20;99.90
14061;DHT22;7105;43.616;1.434;2023-07-13T03:06:45;20.30;99.90
14061;DHT22;7105;43.616;1.434;2023-07-13T03:09:10;20.30;99.90
14061;DHT22;7105;43.616;1.434;2023-07-13T03:11:38;20.30;99.90
14061;DHT22;7105;43.616;1.434;2023-07-13T03:14:04;20.30;99.90
14061;DHT22;7105;43.616;1.434;2023-07-13T03:16:29;20.20;99.90
14061;DHT22;7105;43.616;1.434;2023-07-13T03:18:55;20.10;99.90
14061;DHT22;7105;43.616;1.434;2023-07-13T03:21:21;19.90;99.90
14061;DHT22;7105;43.616;1.434;2023-07-13T03:23:46;19.80;99.90
14061;DHT22;7105;43.616;1.434;2023-07-13T03:26:16;19.80;99.90
14061;DHT22;7105;43.616;1.434;2023-07-13T03:28:42;19.70;99.90
14061;DHT22;7105;43.616;1.434;2023-07-13T03:31:10;19.80;99.90
14061;DHT22;7105;43.616;1.434;2023-07-13T03:33:37;19.90;99.90
14061;DHT22;7105;43.616;1.434;2023-07-13T03:36:05;19.70;99.90
14061;DHT22;7105;43.616;1.434;2023-07-13T03:38:32;19.90;99.90
14061;DHT22;7105;43.616;1.434;2023-07-13T03:40:57;19.90;99.90
14061;DHT22;7105;43.616;1.434;2023-07-13T03:43:23;19.70;99.90
14061;DHT22;7105;43.616;1.434;2023-07-13T03:45:49;19.80;99.90
14061;DHT22;7105;43.616;1.434;2023-07-13T03:48:15;19.90;99.90
14061;DHT22;7105;43.616;1.434;2023-07-13T03:50:40;19.80;99.90
14061;DHT22;7105;43.616;1.434;2023-07-13T03:53:06;19.60;99.90
14061;DHT22;7105;43.616;1.434;2023-07-13T03:55:32;19.70;99.90
14061;DHT22;7105;43.616;1.434;2023-07-13T04:00:45;19.60;99.90
14061;DHT22;7105;43.616;1.434;2023-07-13T04:03:11;19.60;99.90
14061;DHT22;7105;43.616;1.434;2023-07-13T04:05:37;19.60;99.90
14061;DHT22;7105;43.616;1.434;2023-07-13T04:08:06;19.50;99.90
14061;DHT22;7105;43.616;1.434;2023-07-13T04:10:31;19.50;99.90
14061;DHT22;7105;43.616;1.434;2023-07-13T04:12:57;19.40;99.90
14061;DHT22;7105;43.616;1.434;2023-07-13T04:15:22;19.60;99.90
14061;DHT22;7105;43.616;1.434;2023-07-13T04:17:48;19.50;99.90
14061;DHT22;7105;43.616;1.434;2023-07-13T04:20:14;19.40;99.90
14061;DHT22;7105;43.616;1.434;2023-07-13T04:22:39;19.40;99.90
14061;DHT22;7105;43.616;1.434;2023-07-13T04:25:05;19.40;99.90
14061;DHT22;7105;43.616;1.434;2023-07-13T04:27:31;19.40;99.90
14061;DHT22;7105;43.616;1.434;2023-07-13T04:29:57;19.50;99.90
14061;DHT22;7105;43.616;1.434;2023-07-13T04:32:23;19.60;99.90
14061;DHT22;7105;43.616;1.434;2023-07-13T04:34:48;19.40;99.90
14061;DHT22;7105;43.616;1.434;2023-07-13T04:37:20;19.30;99.90
14061;DHT22;7105;43.616;1.434;2023-07-13T04:39:46;19.50;99.90
14061;DHT22;7105;43.616;1.434;2023-07-13T04:42:12;19.30;99.90
14061;DHT22;7105;43.616;1.434;2023-07-13T04:44:37;19.20;99.90
14061;DHT22;7105;43.616;1.434;2023-07-13T04:47:03;19.50;99.90
14061;DHT22;7105;43.616;1.434;2023-07-13T04:49:29;19.90;99.90
14061;DHT22;7105;43.616;1.434;2023-07-13T04:51:55;20.00;99.90
14061;DHT22;7105;43.616;1.434;2023-07-13T04:54:21;19.90;99.90
14061;DHT22;7105;43.616;1.434;2023-07-13T04:56:48;19.70;99.90
14061;DHT22;7105;43.616;1.434;2023-07-13T04:59:13;19.40;99.90
14061;DHT22;7105;43.616;1.434;2023-07-13T05:01:39;19.40;99.90
14061;DHT22;7105;43.616;1.434;2023-07-13T05:04:06;19.60;99.90
14061;DHT22;7105;43.616;1.434;2023-07-13T05:06:32;19.50;99.90
14061;DHT22;7105;43.616;1.434;2023-07-13T05:08:57;19.40;99.90
14061;DHT22;7105;43.616;1.434;2023-07-13T05:11:23;19.40;99.90
14061;DHT22;7105;43.616;1.434;2023-07-13T05:13:49;19.50;99.90
14061;DHT22;7105;43.616;1.434;2023-07-13T05:16:15;19.40;99.90
14061;DHT22;7105;43.616;1.434;2023-07-13T05:18:40;19.50;99.90
14061;DHT22;7105;43.616;1.434;2023-07-13T05:21:08;19.60;99.90
14061;DHT22;7105;43.616;1.434;2023-07-13T05:23:35;19.50;99.90
14061;DHT22;7105;43.616;1.434;2023-07-13T05:26:02;19.70;99.90
14061;DHT22;7105;43.616;1.434;2023-07-13T05:28:29;19.70;99.90
14061;DHT22;7105;43.616;1.434;2023-07-13T05:30:55;19.60;99.90
14061;DHT22;7105;43.616;1.434;2023-07-13T05:33:21;19.90;99.90
14061;DHT22;7105;43.616;1.434;2023-07-13T05:35:47;20.30;99.90
14061;DHT22;7105;43.616;1.434;2023-07-13T05:38:13;20.90;99.90
14061;DHT22;7105;43.616;1.434;2023-07-13T05:40:39;20.90;99.90
14061;DHT22;7105;43.616;1.434;2023-07-13T05:43:05;21.20;99.90
14061;DHT22;7105;43.616;1.434;2023-07-13T05:45:30;22.40;99.90
14061;DHT22;7105;43.616;1.434;2023-07-13T05:47:56;23.50;99.90
14061;DHT22;7105;43.616;1.434;2023-07-13T05:50:21;24.30;99.90
14061;DHT22;7105;43.616;1.434;2023-07-13T05:52:47;24.20;99.90
14061;DHT22;7105;43.616;1.434;2023-07-13T05:55:13;24.90;99.90
14061;DHT22;7105;43.616;1.434;2023-07-13T05:57:39;24.50;99.90
14061;DHT22;7105;43.616;1.434;2023-07-13T06:00:05;25.40;99.90
14061;DHT22;7105;43.616;1.434;2023-07-13T06:02:31;25.70;99.90
14061;DHT22;7105;43.616;1.434;2023-07-13T06:04:56;25.90;99.90
14061;DHT22;7105;43.616;1.434;2023-07-13T06:07:22;26.10;99.90
14061;DHT22;7105;43.616;1.434;2023-07-13T06:09:48;26.50;99.90
14061;DHT22;7105;43.616;1.434;2023-07-13T06:12:13;27.80;99.90
14061;DHT22;7105;43.616;1.434;2023-07-13T06:14:39;24.80;99.90
14061;DHT22;7105;43.616;1.434;2023-07-13T06:17:05;24.10;99.90
14061;DHT22;7105;43.616;1.434;2023-07-13T06:19:31;22.60;99.90
14061;DHT22;7105;43.616;1.434;2023-07-13T06:21:57;21.70;99.90
14061;DHT22;7105;43.616;1.434;2023-07-13T06:24:24;21.30;99.90
14061;DHT22;7105;43.616;1.434;2023-07-13T06:26:50;20.90;99.90
14061;DHT22;7105;43.616;1.434;2023-07-13T06:29:16;21.20;99.90
14061;DHT22;7105;43.616;1.434;2023-07-13T06:31:42;21.20;99.90
14061;DHT22;7105;43.616;1.434;2023-07-13T06:34:08;20.60;99.90
14061;DHT22;7105;43.616;1.434;2023-07-13T06:36:33;20.70;99.90
14061;DHT22;7105;43.616;1.434;2023-07-13T06:38:59;20.80;99.90
14061;DHT22;7105;43.616;1.434;2023-07-13T06:41:25;20.90;99.90
14061;DHT22;7105;43.616;1.434;2023-07-13T06:43:52;21.40;99.90
14061;DHT22;7105;43.616;1.434;2023-07-13T06:46:20;21.50;99.90
14061;DHT22;7105;43.616;1.434;2023-07-13T06:48:46;22.20;99.90
14061;DHT22;7105;43.616;1.434;2023-07-13T06:51:11;22.50;99.90
14061;DHT22;7105;43.616;1.434;2023-07-13T06:53:38;21.90;99.90
14061;DHT22;7105;43.616;1.434;2023-07-13T06:56:04;21.30;99.90
14061;DHT22;7105;43.616;1.434;2023-07-13T06:58:30;21.60;99.90
14061;DHT22;7105;43.616;1.434;2023-07-13T07:00:56;21.40;99.90
14061;DHT22;7105;43.616;1.434;2023-07-13T07:03:22;21.90;99.90
14061;DHT22;7105;43.616;1.434;2023-07-13T07:05:48;21.00;99.90
14061;DHT22;7105;43.616;1.434;2023-07-13T07:08:13;21.20;99.90
14061;DHT22;7105;43.616;1.434;2023-07-13T07:10:40;21.40;99.90
14061;DHT22;7105;43.616;1.434;2023-07-13T07:13:06;21.60;99.90
14061;DHT22;7105;43.616;1.434;2023-07-13T07:15:32;21.70;99.90
14061;DHT22;7105;43.616;1.434;2023-07-13T07:17:59;21.80;99.90
14061;DHT22;7105;43.616;1.434;2023-07-13T07:20:25;21.80;99.90
14061;DHT22;7105;43.616;1.434;2023-07-13T07:22:50;21.50;99.90
14061;DHT22;7105;43.616;1.434;2023-07-13T07:25:16;21.90;99.90
14061;DHT22;7105;43.616;1.434;2023-07-13T07:27:42;22.00;99.90
14061;DHT22;7105;43.616;1.434;2023-07-13T07:30:08;22.30;99.90
14061;DHT22;7105;43.616;1.434;2023-07-13T07:32:33;22.40;99.90
14061;DHT22;7105;43.616;1.434;2023-07-13T07:34:59;22.40;99.90
14061;DHT22;7105;43.616;1.434;2023-07-13T07:37:27;22.20;99.90
14061;DHT22;7105;43.616;1.434;2023-07-13T07:39:53;22.10;99.90
14061;DHT22;7105;43.616;1.434;2023-07-13T07:42:19;22.10;99.90
14061;DHT22;7105;43.616;1.434;2023-07-13T07:44:44;22.30;99.90
14061;DHT22;7105;43.616;1.434;2023-07-13T07:47:10;22.60;99.90
14061;DHT22;7105;43.616;1.434;2023-07-13T07:49:36;22.40;99.90
14061;DHT22;7105;43.616;1.434;2023-07-13T07:52:02;23.30;99.90
14061;DHT22;7105;43.616;1.434;2023-07-13T07:54:28;24.10;99.90
14061;DHT22;7105;43.616;1.434;2023-07-13T07:56:54;24.60;99.90
14061;DHT22;7105;43.616;1.434;2023-07-13T07:59:19;26.90;99.90
14061;DHT22;7105;43.616;1.434;2023-07-13T08:01:45;28.90;99.90
14061;DHT22;7105;43.616;1.434;2023-07-13T08:04:13;30.70;99.90
14061;DHT22;7105;43.616;1.434;2023-07-13T08:06:39;32.10;99.90
14061;DHT22;7105;43.616;1.434;2023-07-13T08:09:04;30.90;99.90
14061;DHT22;7105;43.616;1.434;2023-07-13T08:11:30;30.40;99.90
14061;DHT22;7105;43.616;1.434;2023-07-13T08:13:55;30.90;99.90
14061;DHT22;7105;43.616;1.434;2023-07-13T08:16:22;31.80;99.90
14061;DHT22;7105;43.616;1.434;2023-07-13T08:18:48;31.20;99.90
14061;DHT22;7105;43.616;1.434;2023-07-13T08:21:14;31.30;99.90
14061;DHT22;7105;43.616;1.434;2023-07-13T08:23:40;30.40;99.90
14061;DHT22;7105;43.616;1.434;2023-07-13T08:26:05;31.20;99.90
14061;DHT22;7105;43.616;1.434;2023-07-13T08:28:33;30.30;99.90
14061;DHT22;7105;43.616;1.434;2023-07-13T08:31:06;31.40;99.90
14061;DHT22;7105;43.616;1.434;2023-07-13T08:33:36;32.50;99.90
14061;DHT22;7105;43.616;1.434;2023-07-13T08:36:02;30.50;99.90
14061;DHT22;7105;43.616;1.434;2023-07-13T08:38:28;31.30;99.90
14061;DHT22;7105;43.616;1.434;2023-07-13T08:40:56;32.60;99.90
14061;DHT22;7105;43.616;1.434;2023-07-13T08:43:36;30.60;99.90
14061;DHT22;7105;43.616;1.434;2023-07-13T08:49:02;31.90;99.90
14061;DHT22;7105;43.616;1.434;2023-07-13T08:54:03;30.20;99.90
14061;DHT22;7105;43.616;1.434;2023-07-13T08:56:31;32.20;99.90
14061;DHT22;7105;43.616;1.434;2023-07-13T08:59:16;33.70;99.90
14061;DHT22;7105;43.616;1.434;2023-07-13T09:04:22;29.70;99.90
14061;DHT22;7105;43.616;1.434;2023-07-13T09:15:45;25.90;99.90
14061;DHT22;7105;43.616;1.434;2023-07-13T09:23:38;26.10;99.90
14061;DHT22;7105;43.616;1.434;2023-07-13T09:26:18;26.20;99.90
14061;DHT22;7105;43.616;1.434;2023-07-13T09:28:48;26.40;99.90
14061;DHT22;7105;43.616;1.434;2023-07-13T09:31:24;25.70;99.90
14061;DHT22;7105;43.616;1.434;2023-07-13T09:33:51;25.30;99.90
14061;DHT22;7105;43.616;1.434;2023-07-13T09:38:45;25.30;99.90
14061;DHT22;7105;43.616;1.434;2023-07-13T09:44:08;26.10;99.90
14061;DHT22;7105;43.616;1.434;2023-07-13T09:46:35;24.80;99.90
14061;DHT22;7105;43.616;1.434;2023-07-13T09:49:00;24.70;99.90
14061;DHT22;7105;43.616;1.434;2023-07-13T09:51:26;25.10;99.90
14061;DHT22;7105;43.616;1.434;2023-07-13T09:53:53;25.60;99.90
14061;DHT22;7105;43.616;1.434;2023-07-13T09:56:25;25.60;99.90
14061;DHT22;7105;43.616;1.434;2023-07-13T09:58:52;26.40;99.90
14061;DHT22;7105;43.616;1.434;2023-07-13T10:01:32;26.20;99.90
14061;DHT22;7105;43.616;1.434;2023-07-13T10:03:59;25.60;99.90
14061;DHT22;7105;43.616;1.434;2023-07-13T10:06:24;25.80;99.90
14061;DHT22;7105;43.616;1.434;2023-07-13T10:08:52;25.00;99.90
14061;DHT22;7105;43.616;1.434;2023-07-13T10:11:21;24.70;99.90
14061;DHT22;7105;43.616;1.434;2023-07-13T10:16:25;25.20;99.90
14061;DHT22;7105;43.616;1.434;2023-07-13T10:18:55;25.20;99.90
14061;DHT22;7105;43.616;1.434;2023-07-13T10:21:36;24.70;99.90
14061;DHT22;7105;43.616;1.434;2023-07-13T10:26:58;24.70;99.90
14061;DHT22;7105;43.616;1.434;2023-07-13T10:29:27;24.90;99.90
14061;DHT22;7105;43.616;1.434;2023-07-13T10:31:53;25.00;99.90
14061;DHT22;7105;43.616;1.434;2023-07-13T10:34:19;25.40;99.90
14061;DHT22;7105;43.616;1.434;2023-07-13T10:36:47;25.30;99.90
14061;DHT22;7105;43.616;1.434;2023-07-13T10:41:42;25.70;99.90
14061;DHT22;7105;43.616;1.434;2023-07-13T10:44:21;25.80;99.90
14061;DHT22;7105;43.616;1.434;2023-07-13T10:46:51;25.60;99.90
14061;DHT22;7105;43.616;1.434;2023-07-13T10:49:18;25.60;99.90
14061;DHT22;7105;43.616;1.434;2023-07-13T10:51:44;26.20;99.90
14061;DHT22;7105;43.616;1.434;2023-07-13T10:54:34;25.30;99.90
14061;DHT22;7105;43.616;1.434;2023-07-13T10:57:26;25.20;99.90
14061;DHT22;7105;43.616;1.434;2023-07-13T11:02:28;25.80;99.90
14061;DHT22;7105;43.616;1.434;2023-07-13T11:04:55;25.20;99.90
14061;DHT22;7105;43.616;1.434;2023-07-13T11:07:25;25.10;99.90
14061;DHT22;7105;43.616;1.434;2023-07-13T11:09:58;25.00;99.90
14061;DHT22;7105;43.616;1.434;2023-07-13T11:17:34;24.70;99.90
14061;DHT22;7105;43.616;1.434;2023-07-13T11:25:28;26.00;99.90
14061;DHT22;7105;43.616;1.434;2023-07-13T11:30:41;25.90;99.90
14061;DHT22;7105;43.616;1.434;2023-07-13T11:36:00;26.60;99.90
14061;DHT22;7105;43.616;1.434;2023-07-13T11:38:43;26.20;99.90
14061;DHT22;7105;43.616;1.434;2023-07-13T11:41:22;25.20;99.90
14061;DHT22;7105;43.616;1.434;2023-07-13T11:43:53;25.00;99.90
14061;DHT22;7105;43.616;1.434;2023-07-13T11:46:24;25.20;99.90
14061;DHT22;7105;43.616;1.434;2023-07-13T11:48:51;25.60;99.90
14061;DHT22;7105;43.616;1.434;2023-07-13T11:51:36;25.30;99.90
14061;DHT22;7105;43.616;1.434;2023-07-13T11:54:24;25.90;99.90
14061;DHT22;7105;43.616;1.434;2023-07-13T11:56:52;25.40;99.90
14061;DHT22;7105;43.616;1.434;2023-07-13T11:59:18;25.10;99.90
14061;DHT22;7105;43.616;1.434;2023-07-13T12:01:50;25.60;99.90
14061;DHT22;7105;43.616;1.434;2023-07-13T12:04:29;25.30;99.90
14061;DHT22;7105;43.616;1.434;2023-07-13T12:07:17;25.30;99.90
14061;DHT22;7105;43.616;1.434;2023-07-13T12:09:43;26.30;99.90
14061;DHT22;7105;43.616;1.434;2023-07-13T12:12:19;26.00;99.90
14061;DHT22;7105;43.616;1.434;2023-07-13T12:14:44;25.80;99.90
14061;DHT22;7105;43.616;1.434;2023-07-13T12:17:21;26.00;99.90
14061;DHT22;7105;43.616;1.434;2023-07-13T12:19:48;26.10;99.90
14061;DHT22;7105;43.616;1.434;2023-07-13T12:22:16;26.40;99.90
14061;DHT22;7105;43.616;1.434;2023-07-13T12:24:45;26.10;99.90
14061;DHT22;7105;43.616;1.434;2023-07-13T12:27:27;26.30;99.90
14061;DHT22;7105;43.616;1.434;2023-07-13T12:30:03;26.40;99.90
14061;DHT22;7105;43.616;1.434;2023-07-13T12:32:31;26.20;99.90
14061;DHT22;7105;43.616;1.434;2023-07-13T12:35:13;25.90;99.90
14061;DHT22;7105;43.616;1.434;2023-07-13T12:37:43;25.90;99.90
14061;DHT22;7105;43.616;1.434;2023-07-13T12:40:17;25.50;99.90
14061;DHT22;7105;43.616;1.434;2023-07-13T12:42:49;26.10;99.90
14061;DHT22;7105;43.616;1.434;2023-07-13T12:45:24;26.30;99.90
14061;DHT22;7105;43.616;1.434;2023-07-13T12:47:57;26.10;99.90
14061;DHT22;7105;43.616;1.434;2023-07-13T12:50:36;26.40;99.90
14061;DHT22;7105;43.616;1.434;2023-07-13T12:53:04;26.70;99.90
14061;DHT22;7105;43.616;1.434;2023-07-13T12:55:47;27.00;99.90
14061;DHT22;7105;43.616;1.434;2023-07-13T12:58:27;26.80;99.90
14061;DHT22;7105;43.616;1.434;2023-07-13T13:00:56;27.40;99.90
14061;DHT22;7105;43.616;1.434;2023-07-13T13:06:04;25.70;99.90
14061;DHT22;7105;43.616;1.434;2023-07-13T13:08:35;25.80;99.90
14061;DHT22;7105;43.616;1.434;2023-07-13T13:11:03;26.30;99.90
14061;DHT22;7105;43.616;1.434;2023-07-13T13:13:30;26.70;99.90
14061;DHT22;7105;43.616;1.434;2023-07-13T13:15:55;26.20;99.90
14061;DHT22;7105;43.616;1.434;2023-07-13T13:18:23;26.50;99.90
14061;DHT22;7105;43.616;1.434;2023-07-13T13:20:50;25.70;99.90
14061;DHT22;7105;43.616;1.434;2023-07-13T13:23:18;25.60;99.90
14061;DHT22;7105;43.616;1.434;2023-07-13T13:25:49;26.10;99.90
14061;DHT22;7105;43.616;1.434;2023-07-13T13:28:20;26.30;99.90
14061;DHT22;7105;43.616;1.434;2023-07-13T13:30:48;26.70;99.90
14061;DHT22;7105;43.616;1.434;2023-07-13T13:33:17;26.80;99.90
14061;DHT22;7105;43.616;1.434;2023-07-13T13:35:43;26.60;99.90
14061;DHT22;7105;43.616;1.434;2023-07-13T13:38:14;26.10;99.90
14061;DHT22;7105;43.616;1.434;2023-07-13T13:40:44;25.90;99.90
14061;DHT22;7105;43.616;1.434;2023-07-13T13:43:22;26.50;99.90
14061;DHT22;7105;43.616;1.434;2023-07-13T13:45:52;25.90;99.90
14061;DHT22;7105;43.616;1.434;2023-07-13T13:48:20;25.80;99.90
14061;DHT22;7105;43.616;1.434;2023-07-13T13:50:48;26.10;99.90
14061;DHT22;7105;43.616;1.434;2023-07-13T13:53:14;25.70;99.90
14061;DHT22;7105;43.616;1.434;2023-07-13T13:55:40;25.40;99.90
14061;DHT22;7105;43.616;1.434;2023-07-13T13:58:10;25.70;99.90
14061;DHT22;7105;43.616;1.434;2023-07-13T14:00:37;25.70;99.90
14061;DHT22;7105;43.616;1.434;2023-07-13T14:03:04;26.20;99.90
14061;DHT22;7105;43.616;1.434;2023-07-13T14:05:29;26.20;99.90
14061;DHT22;7105;43.616;1.434;2023-07-13T14:07:55;26.40;99.90
14061;DHT22;7105;43.616;1.434;2023-07-13T14:10:22;26.50;99.90
14061;DHT22;7105;43.616;1.434;2023-07-13T14:12:52;26.70;99.90
14061;DHT22;7105;43.616;1.434;2023-07-13T14:15:24;26.30;99.90
14061;DHT22;7105;43.616;1.434;2023-07-13T14:17:50;26.00;99.90
14061;DHT22;7105;43.616;1.434;2023-07-13T14:20:17;25.80;99.90
14061;DHT22;7105;43.616;1.434;2023-07-13T14:22:43;25.90;99.90
14061;DHT22;7105;43.616;1.434;2023-07-13T14:25:14;25.80;99.90
14061;DHT22;7105;43.616;1.434;2023-07-13T14:27:41;26.00;99.90
14061;DHT22;7105;43.616;1.434;2023-07-13T14:30:19;26.20;99.90
14061;DHT22;7105;43.616;1.434;2023-07-13T14:32:46;25.90;99.90
14061;DHT22;7105;43.616;1.434;2023-07-13T14:35:15;26.50;99.90
14061;DHT22;7105;43.616;1.434;2023-07-13T14:37:42;26.50;99.90
14061;DHT22;7105;43.616;1.434;2023-07-13T14:40:17;26.90;99.90
14061;DHT22;7105;43.616;1.434;2023-07-13T14:42:43;27.10;99.90
14061;DHT22;7105;43.616;1.434;2023-07-13T14:45:17;27.00;99.90
14061;DHT22;7105;43.616;1.434;2023-07-13T14:47:43;26.70;99.90
14061;DHT22;7105;43.616;1.434;2023-07-13T14:50:19;26.80;99.90
14061;DHT22;7105;43.616;1.434;2023-07-13T14:52:46;27.30;99.90
14061;DHT22;7105;43.616;1.434;2023-07-13T14:55:15;27.00;99.90
14061;DHT22;7105;43.616;1.434;2023-07-13T14:57:41;26.80;99.90
14061;DHT22;7105;43.616;1.434;2023-07-13T15:00:18;26.50;99.90
14061;DHT22;7105;43.616;1.434;2023-07-13T15:02:53;26.10;99.90
14061;DHT22;7105;43.616;1.434;2023-07-13T15:05:26;26.00;99.90
14061;DHT22;7105;43.616;1.434;2023-07-13T15:07:53;26.10;99.90
14061;DHT22;7105;43.616;1.434;2023-07-13T15:10:28;25.90;99.90
14061;DHT22;7105;43.616;1.434;2023-07-13T15:13:01;25.90;99.90
14061;DHT22;7105;43.616;1.434;2023-07-13T15:15:31;25.90;99.90
14061;DHT22;7105;43.616;1.434;2023-07-13T15:17:59;26.40;99.90
14061;DHT22;7105;43.616;1.434;2023-07-13T15:20:31;26.20;99.90
14061;DHT22;7105;43.616;1.434;2023-07-13T15:22:57;26.70;99.90
14061;DHT22;7105;43.616;1.434;2023-07-13T15:25:27;26.30;99.90
14061;DHT22;7105;43.616;1.434;2023-07-13T15:27:55;26.20;99.90
14061;DHT22;7105;43.616;1.434;2023-07-13T15:30:22;26.00;99.90
14061;DHT22;7105;43.616;1.434;2023-07-13T15:32:49;26.10;99.90
14061;DHT22;7105;43.616;1.434;2023-07-13T15:35:16;26.30;99.90
14061;DHT22;7105;43.616;1.434;2023-07-13T15:37:43;26.40;99.90
14061;DHT22;7105;43.616;1.434;2023-07-13T15:40:10;26.80;99.90
14061;DHT22;7105;43.616;1.434;2023-07-13T15:42:37;26.50;99.90
14061;DHT22;7105;43.616;1.434;2023-07-13T15:45:05;26.60;99.90
14061;DHT22;7105;43.616;1.434;2023-07-13T15:47:35;26.70;99.90
14061;DHT22;7105;43.616;1.434;2023-07-13T15:50:00;26.20;99.90
14061;DHT22;7105;43.616;1.434;2023-07-13T15:52:27;26.10;99.90
14061;DHT22;7105;43.616;1.434;2023-07-13T15:54:54;25.90;99.90
14061;DHT22;7105;43.616;1.434;2023-07-13T15:57:20;25.50;99.90
14061;DHT22;7105;43.616;1.434;2023-07-13T15:59:47;25.30;99.90
14061;DHT22;7105;43.616;1.434;2023-07-13T16:02:16;25.80;99.90
14061;DHT22;7105;43.616;1.434;2023-07-13T16:04:43;26.10;99.90
14061;DHT22;7105;43.616;1.434;2023-07-13T16:07:10;26.20;99.90
14061;DHT22;7105;43.616;1.434;2023-07-13T16:09:36;26.10;99.90
14061;DHT22;7105;43.616;1.434;2023-07-13T16:12:12;25.90;99.90
14061;DHT22;7105;43.616;1.434;2023-07-13T16:14:39;25.90;99.90
14061;DHT22;7105;43.616;1.434;2023-07-13T16:17:12;26.40;99.90
14061;DHT22;7105;43.616;1.434;2023-07-13T16:19:38;26.30;99.90
14061;DHT22;7105;43.616;1.434;2023-07-13T16:22:05;26.10;99.90
14061;DHT22;7105;43.616;1.434;2023-07-13T16:24:32;26.20;99.90
14061;DHT22;7105;43.616;1.434;2023-07-13T16:26:58;26.00;99.90
14061;DHT22;7105;43.616;1.434;2023-07-13T16:29:30;25.80;99.90
14061;DHT22;7105;43.616;1.434;2023-07-13T16:32:12;26.20;99.90
14061;DHT22;7105;43.616;1.434;2023-07-13T16:34:40;25.80;99.90
14061;DHT22;7105;43.616;1.434;2023-07-13T16:37:25;25.70;99.90
14061;DHT22;7105;43.616;1.434;2023-07-13T16:39:56;26.10;99.90
14061;DHT22;7105;43.616;1.434;2023-07-13T16:42:24;26.30;99.90
14061;DHT22;7105;43.616;1.434;2023-07-13T16:44:50;26.10;99.90
14061;DHT22;7105;43.616;1.434;2023-07-13T16:47:17;25.90;99.90
14061;DHT22;7105;43.616;1.434;2023-07-13T16:49:44;25.90;99.90
14061;DHT22;7105;43.616;1.434;2023-07-13T16:52:15;25.70;99.90